Time;durP1;ratioP1;P1;durP2;ratioP2;P2;SDS_P1;SDS_P2;PMS_P1;PMS_P2;Temp;Humidity;BMP_temperature;BMP_pressure;BME280_temperature;BME280_humidity;BME280_pressure;Samples;Min_cycle;Max_cycle;Signal;HPM_P1;HPM_P2
2023/07/07 00:02:30;;;;;;;17.52;8.05;;;;;;;-140.66;100.00;55571.53;5114966;28;20032;-72
2023/07/07 00:05:16;;;;;;;17.10;8.13;;;;;;;-140.66;100.00;55571.53;5114162;28;20024;-72
2023/07/07 00:08:02;;;;;;;12.18;7.93;;;;;;;-140.66;100.00;55571.53;5099393;28;20205;-72
2023/07/07 00:10:48;;;;;;;14.45;8.20;;;;;;;-140.66;100.00;55571.53;5114790;28;20023;-73
2023/07/07 00:13:34;;;;;;;15.85;8.40;;;;;;;-140.66;100.00;55571.53;5100829;28;20019;-72
2023/07/07 00:16:20;;;;;;;15.93;8.55;;;;;;;-140.66;100.00;55571.53;5116831;28;20035;-72
2023/07/07 00:19:09;;;;;;;14.90;9.10;;;;;;;-140.66;100.00;55571.53;5103404;28;20123;-72
2023/07/07 00:21:58;;;;;;;14.73;8.40;;;;;;;-140.66;100.00;55571.53;5104345;28;20030;-72
2023/07/07 00:24:43;;;;;;;15.95;8.63;;;;;;;-140.66;100.00;55571.53;5103590;28;20042;-72
2023/07/07 00:27:29;;;;;;;18.48;8.65;;;;;;;-140.66;100.00;55571.53;5119271;28;20027;-73
2023/07/07 00:30:15;;;;;;;18.75;7.72;;;;;;;-140.66;100.00;55571.53;5118642;28;20019;-73
2023/07/07 00:33:01;;;;;;;16.23;8.35;;;;;;;-140.66;100.00;55571.53;5118093;28;20114;-72
2023/07/07 00:35:48;;;;;;;14.20;8.40;;;;;;;-140.66;100.00;55571.53;5118412;28;20355;-73
2023/07/07 00:38:33;;;;;;;19.00;8.07;;;;;;;-140.66;100.00;55571.53;5118063;28;20023;-73
2023/07/07 00:41:19;;;;;;;11.05;7.78;;;;;;;-140.66;100.00;55571.53;5117671;28;20042;-73
2023/07/07 00:44:08;;;;;;;17.40;8.45;;;;;;;-140.66;100.00;55571.53;5119053;28;20436;-73
2023/07/07 00:46:54;;;;;;;11.30;7.93;;;;;;;-140.66;100.00;55571.53;5118211;28;20124;-73
2023/07/07 00:49:40;;;;;;;15.40;7.75;;;;;;;-140.66;100.00;55571.53;5117719;28;20359;-72
2023/07/07 00:52:26;;;;;;;14.55;7.90;;;;;;;-140.66;100.00;55571.53;5118159;28;20121;-73
2023/07/07 00:55:19;;;;;;;22.25;8.57;;;;;;;-140.66;100.00;55571.53;5117237;28;20019;-73
2023/07/07 00:58:09;;;;;;;10.88;7.68;;;;;;;-140.66;100.00;55571.53;5118738;28;20027;-73
2023/07/07 01:01:05;;;;;;;18.40;8.98;;;;;;;-140.66;100.00;55571.53;5117271;28;20413;-73
2023/07/07 01:03:59;;;;;;;17.65;8.63;;;;;;;-140.66;100.00;55571.53;5117554;28;20376;-73
2023/07/07 01:06:52;;;;;;;11.80;8.48;;;;;;;-140.66;100.00;55571.53;5117963;28;20023;-72
2023/07/07 01:09:38;;;;;;;14.88;8.45;;;;;;;-140.66;100.00;55571.53;5102866;28;20031;-73
2023/07/07 01:12:23;;;;;;;17.27;8.32;;;;;;;-140.66;100.00;55571.53;5118671;28;20038;-73
2023/07/07 01:15:09;;;;;;;19.70;8.80;;;;;;;-140.66;100.00;55571.53;5117605;28;20115;-73
2023/07/07 01:18:13;;;;;;;15.45;8.57;;;;;;;-140.66;100.00;55571.53;5117842;28;20103;-73
2023/07/07 01:21:12;;;;;;;14.07;8.55;;;;;;;-140.66;100.00;55571.53;5116655;28;20485;-72
2023/07/07 01:24:19;;;;;;;16.48;8.80;;;;;;;-140.66;100.00;55571.53;5104279;28;20397;-74
2023/07/07 01:27:32;;;;;;;14.73;8.50;;;;;;;-140.66;100.00;55571.53;5117581;28;20028;-73
2023/07/07 01:30:29;;;;;;;12.00;7.93;;;;;;;-140.66;100.00;55571.53;5117176;28;20024;-73
2023/07/07 01:33:18;;;;;;;15.27;8.32;;;;;;;-140.66;100.00;55571.53;5118233;28;20035;-73
2023/07/07 01:36:04;;;;;;;16.38;7.85;;;;;;;-140.66;100.00;55571.53;5101866;28;20019;-73
2023/07/07 01:38:49;;;;;;;13.63;8.60;;;;;;;-140.66;100.00;55571.53;5102512;28;20039;-73
2023/07/07 01:41:56;;;;;;;10.98;7.47;;;;;;;-140.66;100.00;55571.53;5117369;28;20031;-73
2023/07/07 01:45:12;;;;;;;11.10;8.30;;;;;;;-140.66;100.00;55571.53;5117830;28;20177;-72
2023/07/07 01:48:11;;;;;;;12.63;8.10;;;;;;;-140.66;100.00;55571.53;5116838;28;20023;-73
2023/07/07 01:50:58;;;;;;;11.63;8.30;;;;;;;-140.66;100.00;55571.53;5116629;28;20054;-72
2023/07/07 01:53:47;;;;;;;14.07;8.27;;;;;;;-140.66;100.00;55571.53;5117507;28;20034;-73
2023/07/07 01:56:33;;;;;;;12.48;7.30;;;;;;;-140.66;100.00;55571.53;5116511;28;20050;-73
2023/07/07 01:59:19;;;;;;;14.30;8.20;;;;;;;-140.66;100.00;55571.53;5116271;28;20031;-73
2023/07/07 02:02:06;;;;;;;10.45;7.25;;;;;;;-140.66;100.00;55571.53;5102033;28;20020;-73
2023/07/07 02:04:52;;;;;;;12.57;7.82;;;;;;;-140.66;100.00;55571.53;5116369;28;20515;-72
2023/07/07 02:07:38;;;;;;;11.40;7.60;;;;;;;-140.66;100.00;55571.53;5116848;28;20440;-72
2023/07/07 02:10:24;;;;;;;14.10;7.20;;;;;;;-140.66;100.00;55571.53;5101054;28;20019;-72
2023/07/07 02:13:10;;;;;;;10.85;7.25;;;;;;;-140.66;100.00;55571.53;5115864;28;20037;-73
2023/07/07 02:15:56;;;;;;;12.40;7.35;;;;;;;-140.66;100.00;55571.53;5101810;28;20023;-73
2023/07/07 02:18:48;;;;;;;12.13;8.00;;;;;;;-140.66;100.00;55571.53;5117002;28;20024;-73
2023/07/07 02:21:33;;;;;;;10.98;8.10;;;;;;;-140.66;100.00;55571.53;5116087;28;20508;-73
2023/07/07 02:24:19;;;;;;;15.45;7.80;;;;;;;-140.66;100.00;55571.53;5115778;28;20035;-72
2023/07/07 02:27:07;;;;;;;15.18;9.25;;;;;;;-140.66;100.00;55571.53;5101923;28;20020;-73
2023/07/07 02:29:53;;;;;;;12.30;7.43;;;;;;;-140.66;100.00;55571.53;5116737;28;20024;-73
2023/07/07 02:32:39;;;;;;;10.95;7.20;;;;;;;-140.66;100.00;55571.53;5116592;28;20043;-73
2023/07/07 02:35:25;;;;;;;12.18;7.07;;;;;;;-140.66;100.00;55571.53;5116505;28;20024;-73
2023/07/07 02:38:10;;;;;;;12.65;7.65;;;;;;;-140.66;100.00;55571.53;5115324;28;20023;-73
2023/07/07 02:40:57;;;;;;;11.98;7.88;;;;;;;-140.66;100.00;55571.53;5115878;28;20031;-72
2023/07/07 02:43:43;;;;;;;9.80;7.40;;;;;;;-140.66;100.00;55571.53;5101171;28;20020;-72
2023/07/07 02:46:28;;;;;;;11.45;7.90;;;;;;;-140.66;100.00;55571.53;5102237;28;20428;-72
2023/07/07 02:49:14;;;;;;;10.70;7.82;;;;;;;-140.66;100.00;55571.53;5100794;28;20360;-73
2023/07/07 02:52:00;;;;;;;16.63;7.97;;;;;;;-140.66;100.00;55571.53;5115647;28;20024;-73
2023/07/07 02:54:46;;;;;;;13.20;7.85;;;;;;;-140.66;100.00;55571.53;5114660;28;20074;-73
2023/07/07 02:57:32;;;;;;;14.13;7.60;;;;;;;-140.66;100.00;55571.53;5115477;28;20032;-72
2023/07/07 03:00:18;;;;;;;8.10;6.68;;;;;;;-140.66;100.00;55571.53;5100326;28;20033;-73
2023/07/07 03:03:03;;;;;;;12.50;7.78;;;;;;;-140.66;100.00;55571.53;5115842;28;20023;-72
2023/07/07 03:05:49;;;;;;;11.95;7.97;;;;;;;-140.66;100.00;55571.53;5114813;28;20058;-72
2023/07/07 03:08:36;;;;;;;13.75;7.93;;;;;;;-140.66;100.00;55571.53;5100109;28;20020;-72
2023/07/07 03:11:23;;;;;;;15.73;8.30;;;;;;;-140.66;100.00;55571.53;5115524;28;20024;-71
2023/07/07 03:14:08;;;;;;;13.77;8.40;;;;;;;-140.66;100.00;55571.53;5115639;28;20428;-72
2023/07/07 03:16:57;;;;;;;14.48;8.25;;;;;;;-140.66;100.00;55571.53;5114656;28;20448;-72
2023/07/07 03:19:42;;;;;;;10.60;8.13;;;;;;;-140.66;100.00;55571.53;5114061;28;20056;-73
2023/07/07 03:22:29;;;;;;;14.95;8.18;;;;;;;-140.66;100.00;55571.53;5115321;28;20090;-72
2023/07/07 03:25:16;;;;;;;14.13;8.35;;;;;;;-140.66;100.00;55571.53;5114994;28;20062;-72
2023/07/07 03:28:02;;;;;;;14.45;7.55;;;;;;;-140.66;100.00;55571.53;5114852;28;20096;-73
2023/07/07 03:30:48;;;;;;;14.75;8.00;;;;;;;-140.66;100.00;55571.53;5115183;28;20436;-73
2023/07/07 03:33:34;;;;;;;11.38;8.25;;;;;;;-140.66;100.00;55571.53;5114994;28;20444;-73
2023/07/07 03:36:22;;;;;;;11.07;7.78;;;;;;;-140.66;100.00;55571.53;5115259;28;20031;-72
2023/07/07 03:39:08;;;;;;;14.45;8.30;;;;;;;-140.66;100.00;55571.53;5113828;28;20038;-73
2023/07/07 03:41:54;;;;;;;18.67;8.20;;;;;;;-140.66;100.00;55571.53;5114835;28;20400;-73
2023/07/07 03:44:39;;;;;;;12.93;7.90;;;;;;;-140.66;100.00;55571.53;5114631;28;20047;-72
2023/07/07 03:47:25;;;;;;;13.07;8.45;;;;;;;-140.66;100.00;55571.53;5100643;28;20019;-73
2023/07/07 03:50:11;;;;;;;15.77;8.90;;;;;;;-140.66;100.00;55571.53;5114220;27;20023;-72
2023/07/07 03:52:57;;;;;;;14.75;8.85;;;;;;;-140.66;100.00;55571.53;5113831;28;20051;-72
2023/07/07 03:55:42;;;;;;;15.55;8.77;;;;;;;-140.66;100.00;55571.53;5114634;28;20394;-73
2023/07/07 03:58:29;;;;;;;11.35;8.30;;;;;;;-140.66;100.00;55571.53;5114120;28;20023;-73
2023/07/07 04:01:15;;;;;;;11.65;8.30;;;;;;;-140.66;100.00;55571.53;5113592;28;20051;-73
2023/07/07 04:04:01;;;;;;;12.23;9.10;;;;;;;-140.66;100.00;55571.53;5115333;28;20367;-73
2023/07/07 04:06:47;;;;;;;13.93;8.93;;;;;;;-140.66;100.00;55571.53;5114739;28;20035;-73
2023/07/07 04:09:33;;;;;;;16.42;9.02;;;;;;;-140.66;100.00;55571.53;5114451;28;20058;-73
2023/07/07 04:12:19;;;;;;;12.43;8.77;;;;;;;-140.66;100.00;55571.53;5114264;28;20019;-73
2023/07/07 04:15:05;;;;;;;13.98;9.60;;;;;;;-140.66;100.00;55571.53;5114340;28;20030;-73
2023/07/07 04:17:51;;;;;;;14.50;9.02;;;;;;;-140.66;100.00;55571.53;5113815;28;20114;-72
2023/07/07 04:20:36;;;;;;;11.27;8.88;;;;;;;-140.66;100.00;55571.53;5098518;28;20468;-73
2023/07/07 04:23:22;;;;;;;15.68;9.48;;;;;;;-140.66;100.00;55571.53;5100151;28;20073;-73
2023/07/07 04:26:10;;;;;;;14.02;9.45;;;;;;;-140.66;100.00;55571.53;5114001;28;20051;-72
2023/07/07 04:28:58;;;;;;;14.45;8.57;;;;;;;-140.66;100.00;55571.53;5114049;28;20034;-72
2023/07/07 04:31:45;;;;;;;13.65;9.40;;;;;;;-140.66;100.00;55571.53;5112672;28;20108;-72
2023/07/07 04:34:31;;;;;;;16.70;9.90;;;;;;;-140.66;100.00;55571.53;5114956;28;20027;-72
2023/07/07 04:37:16;;;;;;;14.48;8.57;;;;;;;-140.66;100.00;55571.53;5114717;28;20113;-72
2023/07/07 04:40:03;;;;;;;14.45;9.38;;;;;;;-140.66;100.00;55571.53;5113842;28;20443;-72
2023/07/07 04:42:49;;;;;;;15.80;9.93;;;;;;;-140.66;100.00;55571.53;5114786;28;20039;-73
2023/07/07 04:45:34;;;;;;;15.95;9.57;;;;;;;-140.66;100.00;55571.53;5113926;28;20028;-73
2023/07/07 04:48:20;;;;;;;11.85;9.50;;;;;;;-140.66;100.00;55571.53;5114176;28;20089;-73
2023/07/07 04:51:11;;;;;;;30.15;10.35;;;;;;;-140.66;100.00;55571.53;5115086;28;20035;-73
2023/07/07 04:53:57;;;;;;;16.98;9.40;;;;;;;-140.66;100.00;55571.53;5114471;28;20464;-73
2023/07/07 04:56:44;;;;;;;17.50;9.23;;;;;;;-140.66;100.00;55571.53;5113698;28;20466;-75
2023/07/07 04:59:31;;;;;;;18.50;9.80;;;;;;;-140.66;100.00;55571.53;5113578;28;20114;-74
2023/07/07 05:02:17;;;;;;;14.35;9.88;;;;;;;-140.66;100.00;55571.53;5117004;28;20028;-74
2023/07/07 05:05:03;;;;;;;15.25;10.45;;;;;;;-140.66;100.00;55571.53;5117089;28;20067;-73
2023/07/07 05:07:49;;;;;;;18.60;10.63;;;;;;;-140.66;100.00;55571.53;5116367;28;20027;-73
2023/07/07 05:10:35;;;;;;;18.10;9.57;;;;;;;-140.66;100.00;55571.53;5103929;28;20028;-72
2023/07/07 05:13:21;;;;;;;18.70;9.40;;;;;;;-140.66;100.00;55571.53;5116281;28;20423;-73
2023/07/07 05:16:12;;;;;;;17.10;10.77;;;;;;;-140.66;100.00;55571.53;5118600;28;20027;-73
2023/07/07 05:18:58;;;;;;;13.27;9.70;;;;;;;-140.66;100.00;55571.53;5117397;28;20067;-73
2023/07/07 05:21:44;;;;;;;17.77;9.52;;;;;;;-140.66;100.00;55571.53;5116683;28;20104;-74
2023/07/07 05:24:29;;;;;;;19.10;10.10;;;;;;;-140.66;100.00;55571.53;5117234;28;20100;-73
2023/07/07 05:27:16;;;;;;;12.25;9.55;;;;;;;-140.66;100.00;55571.53;5117132;28;20110;-74
2023/07/07 05:30:02;;;;;;;24.00;9.85;;;;;;;-140.66;100.00;55571.53;5116931;28;20019;-73
2023/07/07 05:32:48;;;;;;;14.55;9.68;;;;;;;-140.66;100.00;55571.53;5117810;28;20088;-73
2023/07/07 05:35:33;;;;;;;14.05;9.65;;;;;;;-140.66;100.00;55571.53;5101815;28;20042;-73
2023/07/07 05:38:22;;;;;;;12.32;10.10;;;;;;;-140.66;100.00;55571.53;5116595;28;20045;-72
2023/07/07 05:41:09;;;;;;;16.50;10.05;;;;;;;-140.66;100.00;55571.53;5117625;28;20027;-73
2023/07/07 05:43:56;;;;;;;23.40;18.15;;;;;;;-140.66;100.00;55571.53;5117376;28;20093;-73
2023/07/07 05:46:41;;;;;;;14.70;10.40;;;;;;;-140.66;100.00;55571.53;5117153;28;20043;-72
2023/07/07 05:49:27;;;;;;;11.52;9.23;;;;;;;-140.66;100.00;55571.53;5117310;28;20031;-72
2023/07/07 05:52:14;;;;;;;17.25;10.02;;;;;;;-140.66;100.00;55571.53;5116322;28;20031;-73
2023/07/07 05:55:02;;;;;;;15.27;10.13;;;;;;;-140.66;100.00;55571.53;5116067;28;20027;-73
2023/07/07 05:57:48;;;;;;;13.55;9.98;;;;;;;-140.66;100.00;55571.53;5117253;28;20093;-73
2023/07/07 06:00:34;;;;;;;17.60;9.80;;;;;;;-140.66;100.00;55571.53;5117303;28;20020;-73
2023/07/07 06:03:20;;;;;;;12.40;9.65;;;;;;;-140.66;100.00;55571.53;5117140;28;20454;-74
2023/07/07 06:06:09;;;;;;;11.77;9.25;;;;;;;-140.66;100.00;55571.53;5116005;28;20032;-74
2023/07/07 06:08:55;;;;;;;12.80;9.40;;;;;;;-140.66;100.00;55571.53;5116099;28;20110;-73
2023/07/07 06:11:41;;;;;;;11.52;9.00;;;;;;;-140.66;100.00;55571.53;5116675;28;20505;-73
2023/07/07 06:14:26;;;;;;;13.18;9.15;;;;;;;-140.66;100.00;55571.53;5115312;28;20506;-73
2023/07/07 06:17:12;;;;;;;14.95;9.57;;;;;;;-140.66;100.00;55571.53;5117088;28;20337;-73
2023/07/07 06:19:58;;;;;;;11.25;9.90;;;;;;;-140.66;100.00;55571.53;5116352;28;20430;-73
2023/07/07 06:22:44;;;;;;;11.93;9.43;;;;;;;-140.66;100.00;55571.53;5116363;28;20034;-73
2023/07/07 06:25:29;;;;;;;23.10;10.50;;;;;;;-140.66;100.00;55571.53;5102109;28;20351;-74
2023/07/07 06:28:16;;;;;;;13.95;9.55;;;;;;;-140.66;100.00;55571.53;5116101;28;20020;-73
2023/07/07 06:31:02;;;;;;;12.38;9.55;;;;;;;-140.66;100.00;55571.53;5099714;28;20038;-74
2023/07/07 06:33:49;;;;;;;13.98;9.80;;;;;;;-140.66;100.00;55571.53;5115618;28;20034;-74
2023/07/07 06:36:34;;;;;;;11.25;9.20;;;;;;;-140.66;100.00;55571.53;5115921;28;20367;-73
2023/07/07 06:39:20;;;;;;;13.50;10.60;;;;;;;-140.66;100.00;55571.53;5115695;28;20042;-73
2023/07/07 06:42:06;;;;;;;11.93;10.43;;;;;;;-140.66;100.00;55571.53;5116078;28;20028;-73
2023/07/07 06:44:52;;;;;;;13.80;10.20;;;;;;;-140.66;100.00;55571.53;5115190;28;20020;-74
2023/07/07 06:47:37;;;;;;;14.52;10.20;;;;;;;-140.66;100.00;55571.53;5100409;28;20023;-74
2023/07/07 06:50:29;;;;;;;11.82;9.85;;;;;;;-140.66;100.00;55571.53;5116348;28;20440;-74
2023/07/07 06:53:15;;;;;;;13.73;9.77;;;;;;;-140.66;100.00;55571.53;5115795;28;20031;-74
2023/07/07 06:56:01;;;;;;;15.32;9.98;;;;;;;-140.66;100.00;55571.53;5115335;28;20359;-74
2023/07/07 06:58:46;;;;;;;16.27;9.90;;;;;;;-140.66;100.00;55571.53;5114970;28;20024;-73
2023/07/07 07:01:32;;;;;;;14.02;9.13;;;;;;;-140.66;100.00;55571.53;5114997;28;20092;-74
2023/07/07 07:04:18;;;;;;;10.35;9.25;;;;;;;-140.66;100.00;55571.53;5115496;28;20066;-73
2023/07/07 07:07:04;;;;;;;11.10;9.90;;;;;;;-140.66;100.00;55571.53;5101083;28;20118;-73
2023/07/07 07:09:50;;;;;;;12.07;9.80;;;;;;;-140.66;100.00;55571.53;5114691;28;20019;-73
2023/07/07 07:12:35;;;;;;;17.60;10.63;;;;;;;-140.66;100.00;55571.53;5099892;28;20038;-73
2023/07/07 07:15:21;;;;;;;11.90;9.70;;;;;;;-140.66;100.00;55571.53;5115479;28;20024;-73
2023/07/07 07:18:08;;;;;;;12.57;9.18;;;;;;;-140.66;100.00;55571.53;5115631;28;20115;-73
2023/07/07 07:20:54;;;;;;;15.27;9.50;;;;;;;-140.66;100.00;55571.53;5100102;28;20048;-73
2023/07/07 07:23:40;;;;;;;13.70;9.50;;;;;;;-140.66;100.00;55571.53;5114380;28;20031;-72
2023/07/07 07:26:25;;;;;;;15.50;9.48;;;;;;;-140.66;100.00;55571.53;5115119;28;20027;-74
2023/07/07 07:29:14;;;;;;;12.45;9.00;;;;;;;-140.66;100.00;55571.53;5114780;28;20031;-74
2023/07/07 07:32:00;;;;;;;10.73;8.73;;;;;;;-140.66;100.00;55571.53;5114997;28;20074;-74
2023/07/07 07:34:46;;;;;;;11.07;8.90;;;;;;;-140.66;100.00;55571.53;5114484;28;20471;-74
2023/07/07 07:37:31;;;;;;;11.60;8.30;;;;;;;-140.66;100.00;55571.53;5115306;28;20020;-74
2023/07/07 07:40:17;;;;;;;10.52;8.98;;;;;;;-140.66;100.00;55571.53;5113929;28;20030;-74
2023/07/07 07:43:03;;;;;;;10.30;8.82;;;;;;;-140.66;100.00;55571.53;5114399;28;20072;-74
2023/07/07 07:45:49;;;;;;;12.18;8.95;;;;;;;-140.66;100.00;55571.53;5114599;28;20557;-74
2023/07/07 07:48:34;;;;;;;10.65;8.57;;;;;;;-140.66;100.00;55571.53;5113361;28;20066;-73
2023/07/07 07:51:20;;;;;;;11.02;7.97;;;;;;;-140.66;100.00;55571.53;5115340;28;20370;-73
2023/07/07 07:54:08;;;;;;;9.40;7.85;;;;;;;-140.66;100.00;55571.53;5114847;28;20023;-73
2023/07/07 07:56:54;;;;;;;11.38;6.03;;;;;;;-140.66;100.00;55571.53;5114306;28;20448;-74
2023/07/07 07:59:40;;;;;;;9.50;6.28;;;;;;;-140.66;100.00;55571.53;5114413;28;20118;-73
2023/07/07 08:02:25;;;;;;;8.18;7.38;;;;;;;-140.66;100.00;55571.53;5115067;28;20020;-73
2023/07/07 08:05:11;;;;;;;12.63;7.32;;;;;;;-140.66;100.00;55571.53;5113211;28;20050;-74
2023/07/07 08:07:58;;;;;;;12.27;8.10;;;;;;;-140.66;100.00;55571.53;5114428;28;20030;-74
2023/07/07 08:10:44;;;;;;;7.97;5.72;;;;;;;-140.66;100.00;55571.53;5115277;28;20345;-73
2023/07/07 08:13:29;;;;;;;8.55;6.80;;;;;;;-140.66;100.00;55571.53;5114320;28;20106;-73
2023/07/07 08:16:15;;;;;;;10.55;6.70;;;;;;;-140.66;100.00;55571.53;5114741;28;20107;-74
2023/07/07 08:19:01;;;;;;;9.05;6.72;;;;;;;-140.66;100.00;55571.53;5114749;28;20056;-73
2023/07/07 08:21:47;;;;;;;11.00;6.88;;;;;;;-140.66;100.00;55571.53;5113800;28;20079;-73
2023/07/07 08:24:39;;;;;;;8.30;6.72;;;;;;;-140.66;100.00;55571.53;5114754;28;20063;-73
2023/07/07 08:27:27;;;;;;;8.65;6.90;;;;;;;-140.66;100.00;55571.53;5114071;28;20055;-73
2023/07/07 08:30:12;;;;;;;9.32;6.72;;;;;;;-140.66;100.00;55571.53;5112932;28;20111;-72
2023/07/07 08:32:58;;;;;;;13.88;7.05;;;;;;;-140.66;100.00;55571.53;5113111;28;20020;-73
2023/07/07 08:35:44;;;;;;;10.57;6.80;;;;;;;-140.66;100.00;55571.53;5099794;28;20031;-73
2023/07/07 08:38:29;;;;;;;10.65;6.97;;;;;;;-140.66;100.00;55571.53;5118910;28;20030;-73
2023/07/07 08:41:15;;;;;;;8.23;7.00;;;;;;;-140.66;100.00;55571.53;5118111;28;20042;-73
2023/07/07 08:44:01;;;;;;;9.35;7.43;;;;;;;-140.66;100.00;55571.53;5117846;28;20027;-73
2023/07/07 08:47:03;;;;;;;10.38;6.82;;;;;;;-140.66;100.00;55571.53;5117452;28;20019;-74
2023/07/07 08:49:59;;;;;;;17.90;7.38;;;;;;;-140.66;100.00;55571.53;5117959;28;20045;-73
2023/07/07 08:53:03;;;;;;;10.05;6.65;;;;;;;-140.66;100.00;55571.53;5117398;28;20020;-74
2023/07/07 08:56:15;;;;;;;9.13;7.50;;;;;;;-140.66;100.00;55571.53;5117986;28;20062;-74
2023/07/07 08:59:13;;;;;;;8.27;7.22;;;;;;;-140.66;100.00;55571.53;5117490;28;20107;-73
2023/07/07 09:02:19;;;;;;;8.75;7.25;;;;;;;-140.66;100.00;55571.53;5117622;28;20470;-74
2023/07/07 09:05:25;;;;;;;9.98;7.22;;;;;;;-140.66;100.00;55571.53;5118484;28;20401;-73
2023/07/07 09:08:23;;;;;;;15.52;8.77;;;;;;;-140.66;100.00;55571.53;5114669;28;20126;-74
2023/07/07 09:11:43;;;;;;;11.00;7.90;;;;;;;-140.66;100.00;55571.53;5117559;28;20430;-73
2023/07/07 09:14:30;;;;;;;12.68;8.30;;;;;;;-140.66;100.00;55571.53;5117438;28;20020;-73
2023/07/07 09:17:22;;;;;;;9.52;8.27;;;;;;;-140.66;100.00;55571.53;5129803;28;20066;-73
2023/07/07 09:20:11;;;;;;;13.13;8.00;;;;;;;-140.66;100.00;55571.53;5107861;28;20043;-73
2023/07/07 09:23:08;;;;;;;13.48;9.05;;;;;;;-140.66;100.00;55571.53;5117593;28;20038;-74
2023/07/07 09:26:03;;;;;;;10.52;8.98;;;;;;;-140.66;100.00;55571.53;5101049;28;20030;-74
2023/07/07 09:28:53;;;;;;;12.75;9.65;;;;;;;-140.66;100.00;55571.53;5117744;28;20031;-74
2023/07/07 09:31:43;;;;;;;13.45;9.35;;;;;;;-140.66;100.00;55571.53;5117546;28;20124;-76
2023/07/07 09:34:30;;;;;;;13.95;9.65;;;;;;;-140.66;100.00;55571.53;5110442;28;20058;-74
2023/07/07 09:37:35;;;;;;;10.98;9.10;;;;;;;-140.66;100.00;55571.53;5123166;28;20068;-74
2023/07/07 09:40:35;;;;;;;11.35;8.95;;;;;;;-140.66;100.00;55571.53;5116987;28;20031;-73
2023/07/07 09:43:30;;;;;;;14.45;9.68;;;;;;;-140.66;100.00;55571.53;5101715;28;20432;-74
2023/07/07 09:46:27;;;;;;;12.90;8.70;;;;;;;-140.66;100.00;55571.53;5102636;28;20039;-74
2023/07/07 09:49:16;;;;;;;12.00;8.40;;;;;;;-140.66;100.00;55571.53;5116452;28;20470;-73
2023/07/07 09:52:13;;;;;;;14.10;8.45;;;;;;;-140.66;100.00;55571.53;5101907;28;20114;-73
2023/07/07 09:55:01;;;;;;;11.77;8.50;;;;;;;-140.66;100.00;55571.53;5116534;28;20363;-74
2023/07/07 09:58:00;;;;;;;9.75;8.80;;;;;;;-140.66;100.00;55571.53;5117942;28;20028;-74
2023/07/07 10:00:50;;;;;;;9.90;8.90;;;;;;;-140.66;100.00;55571.53;5101622;28;20035;-76
2023/07/07 10:03:48;;;;;;;12.70;9.48;;;;;;;-140.66;100.00;55571.53;5116198;28;20019;-74
2023/07/07 10:06:41;;;;;;;11.10;9.52;;;;;;;-140.66;100.00;55571.53;5117021;28;20073;-73
2023/07/07 10:09:28;;;;;;;10.25;9.15;;;;;;;-140.66;100.00;55571.53;5117195;28;20089;-73
2023/07/07 10:12:16;;;;;;;13.88;9.15;;;;;;;-140.66;100.00;55571.53;5116971;28;20019;-74
2023/07/07 10:15:24;;;;;;;15.13;9.20;;;;;;;-140.66;100.00;55571.53;5101212;28;20466;-73
2023/07/07 10:18:32;;;;;;;14.32;9.27;;;;;;;-140.66;100.00;55571.53;5116627;28;20023;-74
2023/07/07 10:21:19;;;;;;;11.50;9.63;;;;;;;-140.66;100.00;55571.53;5115800;28;20380;-74
2023/07/07 10:24:04;;;;;;;11.70;9.13;;;;;;;-140.66;100.00;55571.53;5101266;28;20038;-74
2023/07/07 10:26:51;;;;;;;12.82;8.70;;;;;;;-140.66;100.00;55571.53;5116506;28;20464;-73
2023/07/07 10:29:40;;;;;;;15.32;9.60;;;;;;;-140.66;100.00;55571.53;5102690;28;20031;-73
2023/07/07 10:32:26;;;;;;;10.13;8.90;;;;;;;-140.66;100.00;55571.53;5116606;28;20106;-74
2023/07/07 10:35:18;;;;;;;14.55;10.52;;;;;;;-140.66;100.00;55571.53;5115216;28;20085;-74
2023/07/07 10:38:05;;;;;;;11.38;9.32;;;;;;;-140.66;100.00;55571.53;5101184;28;20028;-73
2023/07/07 10:40:50;;;;;;;14.13;9.68;;;;;;;-140.66;100.00;55571.53;5101284;28;20039;-74
2023/07/07 10:43:36;;;;;;;11.20;9.88;;;;;;;-140.66;100.00;55571.53;5114447;28;20028;-73
2023/07/07 10:46:22;;;;;;;13.60;9.65;;;;;;;-140.66;100.00;55571.53;5115266;28;20483;-73
2023/07/07 10:49:16;;;;;;;12.63;9.77;;;;;;;-140.66;100.00;55571.53;5114593;28;20031;-73
2023/07/07 10:52:35;;;;;;;11.07;8.75;;;;;;;-140.66;100.00;55571.53;5114921;28;20440;-73
2023/07/07 10:55:23;;;;;;;16.63;9.43;;;;;;;-140.66;100.00;55571.53;5115333;28;20047;-74
2023/07/07 10:58:34;;;;;;;12.75;9.73;;;;;;;-140.66;100.00;55571.53;5115635;28;20031;-74
2023/07/07 11:01:42;;;;;;;12.27;9.40;;;;;;;-140.66;100.00;55571.53;5115330;28;20072;-74
2023/07/07 11:04:34;;;;;;;12.25;9.40;;;;;;;-140.66;100.00;55571.53;5101641;28;20030;-74
2023/07/07 11:07:50;;;;;;;16.02;9.80;;;;;;;-140.66;100.00;55571.53;5116182;28;20106;-73
2023/07/07 11:11:04;;;;;;;12.15;9.13;;;;;;;-140.66;100.00;55571.53;5115012;28;20023;-73
2023/07/07 11:14:08;;;;;;;14.65;9.95;;;;;;;-140.66;100.00;55571.53;5115095;28;20351;-74
2023/07/07 11:17:00;;;;;;;14.25;9.32;;;;;;;-140.66;100.00;55571.53;5116557;28;20027;-74
2023/07/07 11:20:05;;;;;;;13.15;9.35;;;;;;;-140.66;100.00;55571.53;5114615;28;20043;-74
2023/07/07 11:23:42;;;;;;;13.55;9.50;;;;;;;-140.66;100.00;55571.53;5100344;28;20039;-74
2023/07/07 11:26:59;;;;;;;12.80;10.38;;;;;;;-140.66;100.00;55571.53;5088493;28;20138;-73
2023/07/07 11:30:01;;;;;;;18.10;9.43;;;;;;;-140.66;100.00;55571.53;5100135;28;20039;-73
2023/07/07 11:33:14;;;;;;;13.98;9.40;;;;;;;-140.66;100.00;55571.53;5101132;28;20106;-73
2023/07/07 11:36:32;;;;;;;17.48;9.82;;;;;;;-140.66;100.00;55571.53;5115234;28;20038;-73
2023/07/07 11:39:36;;;;;;;16.42;9.23;;;;;;;-140.66;100.00;55571.53;5080289;28;20392;-73
2023/07/07 11:42:31;;;;;;;15.68;10.38;;;;;;;-140.66;100.00;55571.53;5101076;28;20102;-73
2023/07/07 11:45:22;;;;;;;15.95;9.93;;;;;;;-140.66;100.00;55571.53;5114425;28;20027;-73
2023/07/07 11:48:29;;;;;;;18.60;10.90;;;;;;;-140.66;100.00;55571.53;5134670;28;20023;-73
2023/07/07 11:51:21;;;;;;;15.88;11.13;;;;;;;-140.66;100.00;55571.53;5115479;28;20098;-74
2023/07/07 11:54:35;;;;;;;17.10;10.52;;;;;;;-140.66;100.00;55571.53;5100381;28;20027;-74
2023/07/07 11:57:31;;;;;;;17.83;9.82;;;;;;;-140.66;100.00;55571.53;5115119;28;20032;-73
2023/07/07 12:00:32;;;;;;;14.68;9.50;;;;;;;-140.66;100.00;55571.53;5114018;28;20046;-73
2023/07/07 12:03:30;;;;;;;20.10;9.88;;;;;;;-140.66;100.00;55571.53;5114320;28;20440;-73
2023/07/07 12:06:30;;;;;;;17.00;10.00;;;;;;;-140.66;100.00;55571.53;5112466;28;20034;-72
2023/07/07 12:09:23;;;;;;;19.90;10.82;;;;;;;-140.66;100.00;55571.53;5117095;28;20031;-73
2023/07/07 12:12:26;;;;;;;16.45;10.05;;;;;;;-140.66;100.00;55571.53;5114289;28;20023;-73
2023/07/07 12:15:18;;;;;;;15.75;10.65;;;;;;;-140.66;100.00;55571.53;5100466;28;20024;-74
2023/07/07 12:18:13;;;;;;;15.82;10.63;;;;;;;-140.66;100.00;55571.53;5115111;28;20027;-74
2023/07/07 12:21:04;;;;;;;15.65;10.73;;;;;;;-140.66;100.00;55571.53;5114197;28;20150;-73
2023/07/07 12:24:02;;;;;;;16.10;12.07;;;;;;;-140.66;100.00;55571.53;5114289;28;20353;-73
2023/07/07 12:27:00;;;;;;;18.33;12.52;;;;;;;-140.66;100.00;55571.53;5114222;28;20547;-74
2023/07/07 12:29:48;;;;;;;24.35;13.40;;;;;;;-140.66;100.00;55571.53;5099524;28;20035;-74
2023/07/07 12:32:34;;;;;;;17.45;12.90;;;;;;;-140.66;100.00;55571.53;5114047;28;20367;-73
2023/07/07 12:35:31;;;;;;;18.60;12.73;;;;;;;-140.66;100.00;55571.53;5114668;28;20024;-73
2023/07/07 12:38:33;;;;;;;16.02;12.82;;;;;;;-140.66;100.00;55571.53;5114739;28;20435;-74
2023/07/07 12:41:24;;;;;;;16.23;12.48;;;;;;;-140.66;100.00;55571.53;5114140;28;20114;-73
2023/07/07 12:44:11;;;;;;;18.17;12.65;;;;;;;-140.66;100.00;55571.53;5114866;28;20024;-73
2023/07/07 12:46:58;;;;;;;16.30;12.93;;;;;;;-140.66;100.00;55571.53;5115218;28;20405;-73